Saturday, January 20, 2018, 8:23 AM EST
Back to Local

KPVC, Provincetown, Provincetown Municipal Airport

Location: Provincetown, MA, United States Lat: 42.067
Local Time: 8:23 AM EST (13:23 GMT) Lon: -70.217
Time Zone: US/Eastern Elev: 6 ft

Show me the last for .
Show Decoded

2018-01-20 07:56 METAR KPVC 201256Z AUTO 22019G24KT 10SM CLR 03/M01 A2971 RMK AO2 SLP060
                 T00331011 =
2018-01-20 06:56 METAR KPVC 201156Z AUTO 22018G22KT 10SM CLR 03/M01 A2973 RMK AO2 SLP067 6////
                 7//// T00281011 10033 20000 =
2018-01-20 05:56 METAR KPVC 201056Z AUTO 21012KT 10SM CLR 02/M01 RMK AO2 SLPNO T00221011 FZRANO $
                 =
2018-01-20 04:56 METAR KPVC 200956Z AUTO 22014KT 10SM CLR 02/M01 A2980 RMK AO2 SLP092 T00221011
                 FZRANO =
2018-01-20 03:56 METAR KPVC 200856Z AUTO 20012KT 10SM CLR 02/M02 A2983 RMK AO2 SLP100 6////
                 T00171022 56019 FZRANO =
2018-01-20 01:56 METAR KPVC 200656Z AUTO 20011KT 10SM CLR 01/M04 A2986 RMK AO2 SLP112 T00061039
                 FZRANO =
2018-01-20 00:56 METAR KPVC 200556Z AUTO 22011KT 10SM CLR 00/M04 A2988 RMK AO2 SLP119 6////
                 T00001044 10006 21022 FZRANO =
2018-01-19 23:56 METAR KPVC 200456Z AUTO 10SM CLR 00/M05 RMK AO2 SLPNO T00001050 400171039 FZRANO
                 $ =
2018-01-19 22:56 METAR KPVC 200356Z AUTO 10SM CLR 00/M05 RMK AO2 SLPNO T00001050 FZRANO $ =
2018-01-19 21:56 METAR KPVC 200256Z AUTO 25010KT 10SM FEW039 00/M06 RMK AO2 SLPNO 6//// T00001056
                 FZRANO $ =
2018-01-19 20:56 METAR KPVC 200156Z AUTO 10SM OVC039 01/M06 A2996 RMK AO2 SLP146 T00061056 FZRANO
                 $ =
2018-01-19 19:56 METAR KPVC 200056Z AUTO 23004KT 10SM CLR M02/M05 RMK AO2 SLPNO T10221050 FZRANO
                 $ =
2018-01-19 18:56 METAR KPVC 192356Z AUTO 18004KT 10SM OVC039 M01/M05 A2994 RMK AO2 SLP138 6////
                 T10111050 10006 21028 58004 FZRANO =
2018-01-19 17:56 METAR KPVC 192256Z AUTO 00000KT 10SM OVC037 M02/M05 A2996 RMK AO2 SLP145
                 T10221050 FZRANO =
2018-01-19 16:56 METAR KPVC 192156Z AUTO 00000KT 10SM CLR M02/M06 A2996 RMK AO2 SLP145 T10171056
                 FZRANO =
2018-01-19 15:56 METAR KPVC 192056Z AUTO 21005KT 10SM OVC032 00/M06 A2995 RMK AO2 SLP142 6////
                 T00001056 FZRANO =
2018-01-19 15:44 METAR KPVC 192044Z AUTO 24004KT 10SM OVC030 00/M06 A2995 RMK AO2 FZRANO =
2018-01-19 14:56 METAR KPVC 191956Z AUTO 29005KT 10SM OVC028 00/M06 A2995 RMK AO2 SLP140
                 T00001061 FZRANO =
2018-01-19 13:56 METAR KPVC 191856Z AUTO VRB05KT 10SM OVC030 00/M06 A2993 RMK AO2 SLP136
                 T00001056 FZRANO =
2018-01-19 12:56 METAR KPVC 191756Z AUTO 10SM FEW030 00/M06 RMK AO2 SLPNO 6//// T00001061 10017
                 21039 FZRANO $ =
2018-01-19 11:56 METAR KPVC 191656Z AUTO 10SM OVC034 01/M06 RMK AO2 SLPNO T00111056 FZRANO $ =
2018-01-19 10:56 METAR KPVC 191556Z AUTO 28008KT 10SM FEW040 01/M06 A2999 RMK AO2 SLP155
                 T00061056 FZRANO =
2018-01-19 09:56 METAR KPVC 191456Z AUTO 28008KT 10SM CLR 00/M05 A2999 RMK AO2 SLP156 6////
                 T00001050 FZRANO =
2018-01-19 08:56 METAR KPVC 191356Z AUTO 29010KT 10SM CLR M02/M06 A2999 RMK AO2 SLP155 T10171056
                 FZRANO =

Support USWX by starting your Amazon purchase here.